sensor_id;sensor_type;location;lat;lon;timestamp;P1;durP1;ratioP1;P2;durP2;ratioP2
74100;SDS011;62462;52.530;21.682;2023-07-20T00:00:28;2.88;;;1.98;;
74100;SDS011;62462;52.530;21.682;2023-07-20T00:03:09;3.78;;;2.00;;
74100;SDS011;62462;52.530;21.682;2023-07-20T00:05:44;2.95;;;2.03;;
74100;SDS011;62462;52.530;21.682;2023-07-20T00:08:11;3.65;;;2.00;;
74100;SDS011;62462;52.530;21.682;2023-07-20T00:10:36;4.13;;;2.40;;
74100;SDS011;62462;52.530;21.682;2023-07-20T00:13:02;2.22;;;1.63;;
74100;SDS011;62462;52.530;21.682;2023-07-20T00:15:28;4.13;;;1.90;;
74100;SDS011;62462;52.530;21.682;2023-07-20T00:17:54;4.38;;;1.85;;
74100;SDS011;62462;52.530;21.682;2023-07-20T00:20:19;4.20;;;1.90;;
74100;SDS011;62462;52.530;21.682;2023-07-20T00:22:48;3.28;;;1.98;;
74100;SDS011;62462;52.530;21.682;2023-07-20T00:25:16;5.63;;;1.90;;
74100;SDS011;62462;52.530;21.682;2023-07-20T00:27:42;3.85;;;2.20;;
74100;SDS011;62462;52.530;21.682;2023-07-20T00:30:07;4.18;;;1.85;;
74100;SDS011;62462;52.530;21.682;2023-07-20T00:32:33;4.85;;;2.00;;
74100;SDS011;62462;52.530;21.682;2023-07-20T00:34:59;3.22;;;1.92;;
74100;SDS011;62462;52.530;21.682;2023-07-20T00:37:25;4.97;;;2.25;;
74100;SDS011;62462;52.530;21.682;2023-07-20T00:39:51;2.65;;;1.75;;
74100;SDS011;62462;52.530;21.682;2023-07-20T00:42:17;6.82;;;2.10;;
74100;SDS011;62462;52.530;21.682;2023-07-20T00:44:42;3.85;;;1.80;;
74100;SDS011;62462;52.530;21.682;2023-07-20T00:47:08;3.67;;;1.92;;
74100;SDS011;62462;52.530;21.682;2023-07-20T00:49:34;4.97;;;1.92;;
74100;SDS011;62462;52.530;21.682;2023-07-20T00:52:00;3.60;;;2.05;;
74100;SDS011;62462;52.530;21.682;2023-07-20T00:54:28;4.63;;;2.10;;
74100;SDS011;62462;52.530;21.682;2023-07-20T00:56:54;3.83;;;2.20;;
74100;SDS011;62462;52.530;21.682;2023-07-20T00:59:20;3.38;;;2.00;;
74100;SDS011;62462;52.530;21.682;2023-07-20T01:01:46;3.65;;;1.90;;
74100;SDS011;62462;52.530;21.682;2023-07-20T01:04:12;3.40;;;2.25;;
74100;SDS011;62462;52.530;21.682;2023-07-20T01:11:50;3.20;;;2.20;;
74100;SDS011;62462;52.530;21.682;2023-07-20T01:14:24;3.53;;;2.13;;
74100;SDS011;62462;52.530;21.682;2023-07-20T01:16:51;5.57;;;2.13;;
74100;SDS011;62462;52.530;21.682;2023-07-20T01:19:19;4.20;;;2.13;;
74100;SDS011;62462;52.530;21.682;2023-07-20T01:21:49;3.15;;;2.17;;
74100;SDS011;62462;52.530;21.682;2023-07-20T01:32:13;3.28;;;1.85;;
74100;SDS011;62462;52.530;21.682;2023-07-20T01:34:42;6.68;;;2.40;;
74100;SDS011;62462;52.530;21.682;2023-07-20T01:37:09;3.22;;;2.00;;
74100;SDS011;62462;52.530;21.682;2023-07-20T01:39:37;3.28;;;1.83;;
74100;SDS011;62462;52.530;21.682;2023-07-20T01:42:03;3.13;;;1.88;;
74100;SDS011;62462;52.530;21.682;2023-07-20T01:44:29;2.75;;;1.80;;
74100;SDS011;62462;52.530;21.682;2023-07-20T01:46:55;5.70;;;1.77;;
74100;SDS011;62462;52.530;21.682;2023-07-20T01:49:20;3.78;;;2.28;;
74100;SDS011;62462;52.530;21.682;2023-07-20T01:51:46;4.07;;;2.30;;
74100;SDS011;62462;52.530;21.682;2023-07-20T01:54:12;3.60;;;2.40;;
74100;SDS011;62462;52.530;21.682;2023-07-20T01:56:37;4.25;;;2.70;;
74100;SDS011;62462;52.530;21.682;2023-07-20T01:59:03;5.18;;;2.63;;
74100;SDS011;62462;52.530;21.682;2023-07-20T02:01:29;4.78;;;2.20;;
74100;SDS011;62462;52.530;21.682;2023-07-20T02:03:54;3.53;;;2.42;;
74100;SDS011;62462;52.530;21.682;2023-07-20T02:06:20;3.72;;;2.25;;
74100;SDS011;62462;52.530;21.682;2023-07-20T02:08:46;3.58;;;2.22;;
74100;SDS011;62462;52.530;21.682;2023-07-20T02:11:12;2.92;;;2.15;;
74100;SDS011;62462;52.530;21.682;2023-07-20T02:13:37;2.70;;;2.20;;
74100;SDS011;62462;52.530;21.682;2023-07-20T02:16:04;3.75;;;2.42;;
74100;SDS011;62462;52.530;21.682;2023-07-20T02:18:30;2.72;;;2.03;;
74100;SDS011;62462;52.530;21.682;2023-07-20T02:20:55;4.35;;;2.42;;
74100;SDS011;62462;52.530;21.682;2023-07-20T02:23:21;4.50;;;2.58;;
74100;SDS011;62462;52.530;21.682;2023-07-20T02:25:47;6.82;;;2.28;;
74100;SDS011;62462;52.530;21.682;2023-07-20T02:28:13;2.97;;;2.47;;
74100;SDS011;62462;52.530;21.682;2023-07-20T02:30:40;4.10;;;2.40;;
74100;SDS011;62462;52.530;21.682;2023-07-20T02:33:06;4.78;;;2.53;;
74100;SDS011;62462;52.530;21.682;2023-07-20T02:35:32;3.28;;;2.30;;
74100;SDS011;62462;52.530;21.682;2023-07-20T02:37:58;4.85;;;2.70;;
74100;SDS011;62462;52.530;21.682;2023-07-20T02:40:23;3.38;;;2.20;;
74100;SDS011;62462;52.530;21.682;2023-07-20T02:42:49;4.30;;;2.47;;
74100;SDS011;62462;52.530;21.682;2023-07-20T02:45:15;4.93;;;2.20;;
74100;SDS011;62462;52.530;21.682;2023-07-20T02:47:41;3.08;;;2.10;;
74100;SDS011;62462;52.530;21.682;2023-07-20T02:50:07;3.13;;;2.10;;
74100;SDS011;62462;52.530;21.682;2023-07-20T02:52:33;4.00;;;2.47;;
74100;SDS011;62462;52.530;21.682;2023-07-20T02:54:59;4.57;;;2.60;;
74100;SDS011;62462;52.530;21.682;2023-07-20T02:57:25;4.20;;;2.08;;
74100;SDS011;62462;52.530;21.682;2023-07-20T02:59:50;2.97;;;2.40;;
74100;SDS011;62462;52.530;21.682;2023-07-20T03:02:16;3.20;;;2.20;;
74100;SDS011;62462;52.530;21.682;2023-07-20T03:04:42;3.15;;;2.22;;
74100;SDS011;62462;52.530;21.682;2023-07-20T03:07:07;3.08;;;2.40;;
74100;SDS011;62462;52.530;21.682;2023-07-20T03:09:33;3.17;;;2.50;;
74100;SDS011;62462;52.530;21.682;2023-07-20T03:11:59;4.70;;;2.28;;
74100;SDS011;62462;52.530;21.682;2023-07-20T03:14:26;4.53;;;2.53;;
74100;SDS011;62462;52.530;21.682;2023-07-20T03:16:51;3.60;;;2.40;;
74100;SDS011;62462;52.530;21.682;2023-07-20T03:19:17;3.72;;;2.30;;
74100;SDS011;62462;52.530;21.682;2023-07-20T03:21:43;3.53;;;2.60;;
74100;SDS011;62462;52.530;21.682;2023-07-20T03:24:09;5.00;;;2.25;;
74100;SDS011;62462;52.530;21.682;2023-07-20T03:26:35;7.25;;;2.95;;
74100;SDS011;62462;52.530;21.682;2023-07-20T03:29:02;2.97;;;2.30;;
74100;SDS011;62462;52.530;21.682;2023-07-20T03:31:29;4.35;;;2.80;;
74100;SDS011;62462;52.530;21.682;2023-07-20T03:33:54;5.35;;;2.65;;
74100;SDS011;62462;52.530;21.682;2023-07-20T03:36:20;4.93;;;2.47;;
74100;SDS011;62462;52.530;21.682;2023-07-20T03:38:47;4.25;;;2.70;;
74100;SDS011;62462;52.530;21.682;2023-07-20T03:41:13;4.13;;;2.65;;
74100;SDS011;62462;52.530;21.682;2023-07-20T03:43:40;5.63;;;2.50;;
74100;SDS011;62462;52.530;21.682;2023-07-20T03:46:06;4.78;;;2.80;;
74100;SDS011;62462;52.530;21.682;2023-07-20T03:48:33;5.78;;;2.85;;
74100;SDS011;62462;52.530;21.682;2023-07-20T03:50:59;3.72;;;2.88;;
74100;SDS011;62462;52.530;21.682;2023-07-20T03:53:25;5.68;;;2.67;;
74100;SDS011;62462;52.530;21.682;2023-07-20T03:55:52;4.43;;;2.70;;
74100;SDS011;62462;52.530;21.682;2023-07-20T03:58:19;3.58;;;2.85;;
74100;SDS011;62462;52.530;21.682;2023-07-20T04:00:50;3.28;;;2.35;;
74100;SDS011;62462;52.530;21.682;2023-07-20T04:03:16;3.85;;;2.90;;
74100;SDS011;62462;52.530;21.682;2023-07-20T04:05:43;5.07;;;2.60;;
74100;SDS011;62462;52.530;21.682;2023-07-20T04:08:09;3.80;;;2.75;;
74100;SDS011;62462;52.530;21.682;2023-07-20T04:10:36;2.42;;;2.15;;
74100;SDS011;62462;52.530;21.682;2023-07-20T04:13:02;3.63;;;2.92;;
74100;SDS011;62462;52.530;21.682;2023-07-20T04:15:29;4.18;;;2.80;;
74100;SDS011;62462;52.530;21.682;2023-07-20T04:17:55;3.80;;;2.47;;
74100;SDS011;62462;52.530;21.682;2023-07-20T04:20:21;3.35;;;2.47;;
74100;SDS011;62462;52.530;21.682;2023-07-20T04:22:48;4.05;;;2.50;;
74100;SDS011;62462;52.530;21.682;2023-07-20T04:25:14;4.50;;;2.95;;
74100;SDS011;62462;52.530;21.682;2023-07-20T04:27:40;5.03;;;2.85;;
74100;SDS011;62462;52.530;21.682;2023-07-20T04:30:07;4.22;;;2.65;;
74100;SDS011;62462;52.530;21.682;2023-07-20T04:32:33;4.40;;;2.75;;
74100;SDS011;62462;52.530;21.682;2023-07-20T04:34:59;3.55;;;2.72;;
74100;SDS011;62462;52.530;21.682;2023-07-20T04:37:24;3.75;;;2.88;;
74100;SDS011;62462;52.530;21.682;2023-07-20T04:39:50;5.35;;;2.80;;
74100;SDS011;62462;52.530;21.682;2023-07-20T04:42:16;3.45;;;2.60;;
74100;SDS011;62462;52.530;21.682;2023-07-20T04:44:42;5.78;;;3.10;;
74100;SDS011;62462;52.530;21.682;2023-07-20T04:47:08;3.17;;;2.63;;
74100;SDS011;62462;52.530;21.682;2023-07-20T04:49:34;3.85;;;3.03;;
74100;SDS011;62462;52.530;21.682;2023-07-20T04:52:00;4.68;;;3.50;;
74100;SDS011;62462;52.530;21.682;2023-07-20T04:54:27;4.55;;;2.80;;
74100;SDS011;62462;52.530;21.682;2023-07-20T04:56:53;5.28;;;3.00;;
74100;SDS011;62462;52.530;21.682;2023-07-20T04:59:19;3.75;;;2.92;;
74100;SDS011;62462;52.530;21.682;2023-07-20T05:01:44;4.07;;;3.05;;
74100;SDS011;62462;52.530;21.682;2023-07-20T05:04:10;3.47;;;2.97;;
74100;SDS011;62462;52.530;21.682;2023-07-20T05:06:36;4.72;;;3.42;;
74100;SDS011;62462;52.530;21.682;2023-07-20T05:09:03;6.22;;;2.88;;
74100;SDS011;62462;52.530;21.682;2023-07-20T05:11:30;3.10;;;2.75;;
74100;SDS011;62462;52.530;21.682;2023-07-20T05:13:56;5.18;;;2.88;;
74100;SDS011;62462;52.530;21.682;2023-07-20T05:16:21;4.15;;;2.65;;
74100;SDS011;62462;52.530;21.682;2023-07-20T05:18:47;3.42;;;2.88;;
74100;SDS011;62462;52.530;21.682;2023-07-20T05:21:13;7.25;;;3.60;;
74100;SDS011;62462;52.530;21.682;2023-07-20T05:23:38;3.63;;;2.50;;
74100;SDS011;62462;52.530;21.682;2023-07-20T05:26:04;4.93;;;3.00;;
74100;SDS011;62462;52.530;21.682;2023-07-20T05:28:30;6.82;;;3.63;;
74100;SDS011;62462;52.530;21.682;2023-07-20T05:30:56;5.85;;;3.70;;
74100;SDS011;62462;52.530;21.682;2023-07-20T05:33:24;5.43;;;3.40;;
74100;SDS011;62462;52.530;21.682;2023-07-20T05:35:50;4.45;;;3.38;;
74100;SDS011;62462;52.530;21.682;2023-07-20T05:38:16;3.65;;;3.20;;
74100;SDS011;62462;52.530;21.682;2023-07-20T05:40:42;4.82;;;3.22;;
74100;SDS011;62462;52.530;21.682;2023-07-20T05:43:09;5.75;;;3.30;;
74100;SDS011;62462;52.530;21.682;2023-07-20T05:45:35;4.50;;;3.33;;
74100;SDS011;62462;52.530;21.682;2023-07-20T05:48:01;5.15;;;3.60;;
74100;SDS011;62462;52.530;21.682;2023-07-20T05:50:27;4.65;;;3.35;;
74100;SDS011;62462;52.530;21.682;2023-07-20T05:52:53;5.35;;;3.80;;
74100;SDS011;62462;52.530;21.682;2023-07-20T05:55:19;5.85;;;4.30;;
74100;SDS011;62462;52.530;21.682;2023-07-20T05:57:45;6.88;;;4.20;;
74100;SDS011;62462;52.530;21.682;2023-07-20T06:00:12;8.23;;;4.28;;
74100;SDS011;62462;52.530;21.682;2023-07-20T06:02:39;5.93;;;4.13;;
74100;SDS011;62462;52.530;21.682;2023-07-20T06:05:05;7.30;;;3.90;;
74100;SDS011;62462;52.530;21.682;2023-07-20T06:07:36;5.28;;;3.78;;
74100;SDS011;62462;52.530;21.682;2023-07-20T06:10:02;6.07;;;4.30;;
74100;SDS011;62462;52.530;21.682;2023-07-20T06:12:28;6.55;;;4.40;;
74100;SDS011;62462;52.530;21.682;2023-07-20T06:14:54;9.45;;;4.50;;
74100;SDS011;62462;52.530;21.682;2023-07-20T06:17:20;5.53;;;3.75;;
74100;SDS011;62462;52.530;21.682;2023-07-20T06:19:46;5.20;;;4.55;;
74100;SDS011;62462;52.530;21.682;2023-07-20T06:22:11;6.05;;;4.50;;
74100;SDS011;62462;52.530;21.682;2023-07-20T06:24:37;6.30;;;4.00;;
74100;SDS011;62462;52.530;21.682;2023-07-20T06:27:03;5.03;;;4.13;;
74100;SDS011;62462;52.530;21.682;2023-07-20T06:29:30;6.70;;;3.80;;
74100;SDS011;62462;52.530;21.682;2023-07-20T06:31:56;5.28;;;3.90;;
74100;SDS011;62462;52.530;21.682;2023-07-20T06:34:22;6.22;;;3.80;;
74100;SDS011;62462;52.530;21.682;2023-07-20T06:36:47;7.03;;;3.72;;
74100;SDS011;62462;52.530;21.682;2023-07-20T06:39:14;5.05;;;3.63;;
74100;SDS011;62462;52.530;21.682;2023-07-20T06:41:40;4.97;;;3.95;;
74100;SDS011;62462;52.530;21.682;2023-07-20T06:44:05;4.88;;;4.00;;
74100;SDS011;62462;52.530;21.682;2023-07-20T06:46:32;4.57;;;3.42;;
74100;SDS011;62462;52.530;21.682;2023-07-20T06:48:58;5.90;;;4.13;;
74100;SDS011;62462;52.530;21.682;2023-07-20T06:51:24;5.97;;;4.32;;
74100;SDS011;62462;52.530;21.682;2023-07-20T06:53:49;5.97;;;4.47;;
74100;SDS011;62462;52.530;21.682;2023-07-20T06:56:15;6.60;;;3.60;;
74100;SDS011;62462;52.530;21.682;2023-07-20T06:58:41;5.72;;;3.80;;
74100;SDS011;62462;52.530;21.682;2023-07-20T07:01:09;5.65;;;4.00;;
74100;SDS011;62462;52.530;21.682;2023-07-20T07:03:35;5.60;;;3.35;;
74100;SDS011;62462;52.530;21.682;2023-07-20T07:06:01;5.95;;;3.08;;
74100;SDS011;62462;52.530;21.682;2023-07-20T07:08:27;4.25;;;2.83;;
74100;SDS011;62462;52.530;21.682;2023-07-20T07:10:53;5.32;;;3.33;;
74100;SDS011;62462;52.530;21.682;2023-07-20T07:13:19;4.82;;;3.58;;
74100;SDS011;62462;52.530;21.682;2023-07-20T07:15:45;6.15;;;3.60;;
74100;SDS011;62462;52.530;21.682;2023-07-20T07:18:11;5.93;;;4.30;;
74100;SDS011;62462;52.530;21.682;2023-07-20T07:20:37;5.63;;;3.92;;
74100;SDS011;62462;52.530;21.682;2023-07-20T07:23:02;4.40;;;3.30;;
74100;SDS011;62462;52.530;21.682;2023-07-20T07:25:28;5.90;;;3.03;;
74100;SDS011;62462;52.530;21.682;2023-07-20T07:27:55;4.30;;;3.65;;
74100;SDS011;62462;52.530;21.682;2023-07-20T07:30:21;5.85;;;3.53;;
74100;SDS011;62462;52.530;21.682;2023-07-20T07:32:47;6.47;;;3.53;;
74100;SDS011;62462;52.530;21.682;2023-07-20T07:35:12;4.95;;;3.05;;
74100;SDS011;62462;52.530;21.682;2023-07-20T07:37:38;5.15;;;3.40;;
74100;SDS011;62462;52.530;21.682;2023-07-20T07:40:04;5.57;;;3.20;;
74100;SDS011;62462;52.530;21.682;2023-07-20T07:42:31;3.45;;;2.88;;
74100;SDS011;62462;52.530;21.682;2023-07-20T07:44:57;5.68;;;2.90;;
74100;SDS011;62462;52.530;21.682;2023-07-20T07:47:23;3.92;;;2.75;;
74100;SDS011;62462;52.530;21.682;2023-07-20T07:49:49;3.70;;;2.80;;
74100;SDS011;62462;52.530;21.682;2023-07-20T07:52:15;4.60;;;3.33;;
74100;SDS011;62462;52.530;21.682;2023-07-20T07:54:40;4.47;;;3.38;;
74100;SDS011;62462;52.530;21.682;2023-07-20T07:57:06;5.28;;;3.95;;
74100;SDS011;62462;52.530;21.682;2023-07-20T07:59:32;4.68;;;3.40;;
74100;SDS011;62462;52.530;21.682;2023-07-20T08:02:01;4.15;;;3.20;;
74100;SDS011;62462;52.530;21.682;2023-07-20T08:04:30;4.72;;;3.22;;
74100;SDS011;62462;52.530;21.682;2023-07-20T08:06:56;6.55;;;3.55;;
74100;SDS011;62462;52.530;21.682;2023-07-20T08:09:24;4.60;;;3.13;;
74100;SDS011;62462;52.530;21.682;2023-07-20T08:11:50;5.63;;;2.80;;
74100;SDS011;62462;52.530;21.682;2023-07-20T08:14:16;3.45;;;2.63;;
74100;SDS011;62462;52.530;21.682;2023-07-20T08:16:41;7.05;;;4.20;;
74100;SDS011;62462;52.530;21.682;2023-07-20T08:19:08;4.10;;;3.33;;
74100;SDS011;62462;52.530;21.682;2023-07-20T08:21:33;4.63;;;3.30;;
74100;SDS011;62462;52.530;21.682;2023-07-20T08:23:59;5.28;;;3.30;;
74100;SDS011;62462;52.530;21.682;2023-07-20T08:26:25;4.30;;;3.50;;
74100;SDS011;62462;52.530;21.682;2023-07-20T08:28:51;4.95;;;3.58;;
74100;SDS011;62462;52.530;21.682;2023-07-20T08:31:17;4.78;;;3.53;;
74100;SDS011;62462;52.530;21.682;2023-07-20T08:33:43;6.97;;;3.63;;
74100;SDS011;62462;52.530;21.682;2023-07-20T08:36:08;5.60;;;3.50;;
74100;SDS011;62462;52.530;21.682;2023-07-20T08:38:34;6.30;;;4.00;;
74100;SDS011;62462;52.530;21.682;2023-07-20T08:41:00;5.13;;;4.00;;
74100;SDS011;62462;52.530;21.682;2023-07-20T08:43:27;5.53;;;4.05;;
74100;SDS011;62462;52.530;21.682;2023-07-20T08:45:56;6.05;;;4.07;;
74100;SDS011;62462;52.530;21.682;2023-07-20T08:48:23;6.97;;;3.63;;
74100;SDS011;62462;52.530;21.682;2023-07-20T08:50:53;7.10;;;3.92;;
74100;SDS011;62462;52.530;21.682;2023-07-20T08:53:19;5.38;;;3.85;;
74100;SDS011;62462;52.530;21.682;2023-07-20T08:55:46;6.22;;;3.67;;
74100;SDS011;62462;52.530;21.682;2023-07-20T08:58:16;5.30;;;4.47;;
74100;SDS011;62462;52.530;21.682;2023-07-20T09:00:43;6.18;;;4.05;;
74100;SDS011;62462;52.530;21.682;2023-07-20T09:03:09;4.93;;;3.40;;
74100;SDS011;62462;52.530;21.682;2023-07-20T09:05:36;7.00;;;4.10;;
74100;SDS011;62462;52.530;21.682;2023-07-20T09:08:02;5.18;;;3.90;;
74100;SDS011;62462;52.530;21.682;2023-07-20T09:10:28;5.53;;;4.15;;
74100;SDS011;62462;52.530;21.682;2023-07-20T09:12:55;6.43;;;3.80;;
74100;SDS011;62462;52.530;21.682;2023-07-20T09:15:21;4.78;;;4.05;;
74100;SDS011;62462;52.530;21.682;2023-07-20T09:17:48;5.93;;;4.00;;
74100;SDS011;62462;52.530;21.682;2023-07-20T09:20:16;5.47;;;3.80;;
74100;SDS011;62462;52.530;21.682;2023-07-20T09:22:43;5.45;;;3.28;;
74100;SDS011;62462;52.530;21.682;2023-07-20T09:25:13;5.85;;;3.58;;
74100;SDS011;62462;52.530;21.682;2023-07-20T09:27:47;4.50;;;3.50;;
74100;SDS011;62462;52.530;21.682;2023-07-20T09:30:14;4.17;;;3.03;;
74100;SDS011;62462;52.530;21.682;2023-07-20T09:32:44;4.00;;;2.80;;
74100;SDS011;62462;52.530;21.682;2023-07-20T09:37:45;4.85;;;2.40;;
74100;SDS011;62462;52.530;21.682;2023-07-20T09:40:23;3.75;;;2.30;;
74100;SDS011;62462;52.530;21.682;2023-07-20T09:42:51;5.75;;;2.67;;
74100;SDS011;62462;52.530;21.682;2023-07-20T09:45:18;3.53;;;2.70;;
74100;SDS011;62462;52.530;21.682;2023-07-20T09:47:45;3.22;;;2.08;;
74100;SDS011;62462;52.530;21.682;2023-07-20T09:50:10;3.53;;;2.08;;
74100;SDS011;62462;52.530;21.682;2023-07-20T09:52:40;3.10;;;1.50;;
74100;SDS011;62462;52.530;21.682;2023-07-20T09:55:08;5.45;;;2.20;;
74100;SDS011;62462;52.530;21.682;2023-07-20T09:57:34;4.07;;;1.90;;
74100;SDS011;62462;52.530;21.682;2023-07-20T10:00:01;2.72;;;2.00;;
74100;SDS011;62462;52.530;21.682;2023-07-20T10:02:43;3.63;;;2.38;;
74100;SDS011;62462;52.530;21.682;2023-07-20T10:05:10;4.68;;;2.20;;
74100;SDS011;62462;52.530;21.682;2023-07-20T10:07:43;3.15;;;1.80;;
74100;SDS011;62462;52.530;21.682;2023-07-20T10:10:11;2.50;;;1.63;;
74100;SDS011;62462;52.530;21.682;2023-07-20T10:12:40;4.45;;;2.00;;
74100;SDS011;62462;52.530;21.682;2023-07-20T10:15:11;2.40;;;1.73;;
74100;SDS011;62462;52.530;21.682;2023-07-20T10:17:45;3.42;;;2.17;;
74100;SDS011;62462;52.530;21.682;2023-07-20T10:20:31;1.90;;;1.80;;
74100;SDS011;62462;52.530;21.682;2023-07-20T10:22:58;5.13;;;2.15;;
74100;SDS011;62462;52.530;21.682;2023-07-20T10:25:25;2.33;;;2.13;;
74100;SDS011;62462;52.530;21.682;2023-07-20T10:27:53;3.03;;;1.70;;
74100;SDS011;62462;52.530;21.682;2023-07-20T10:30:20;3.70;;;1.70;;
74100;SDS011;62462;52.530;21.682;2023-07-20T10:32:46;3.05;;;1.70;;
74100;SDS011;62462;52.530;21.682;2023-07-20T10:35:15;4.70;;;2.03;;
74100;SDS011;62462;52.530;21.682;2023-07-20T10:37:45;2.20;;;1.40;;
74100;SDS011;62462;52.530;21.682;2023-07-20T10:42:56;2.80;;;2.10;;
74100;SDS011;62462;52.530;21.682;2023-07-20T10:45:32;4.00;;;2.00;;
74100;SDS011;62462;52.530;21.682;2023-07-20T10:47:58;4.10;;;2.13;;
74100;SDS011;62462;52.530;21.682;2023-07-20T10:50:27;3.05;;;1.80;;
74100;SDS011;62462;52.530;21.682;2023-07-20T10:53:04;4.88;;;2.13;;
74100;SDS011;62462;52.530;21.682;2023-07-20T10:55:35;3.40;;;1.48;;
74100;SDS011;62462;52.530;21.682;2023-07-20T10:58:13;2.70;;;1.45;;
74100;SDS011;62462;52.530;21.682;2023-07-20T11:00:58;3.67;;;1.88;;
74100;SDS011;62462;52.530;21.682;2023-07-20T11:03:29;2.58;;;1.80;;
74100;SDS011;62462;52.530;21.682;2023-07-20T11:05:59;3.95;;;2.03;;
74100;SDS011;62462;52.530;21.682;2023-07-20T11:08:45;4.47;;;1.85;;
74100;SDS011;62462;52.530;21.682;2023-07-20T11:11:27;4.13;;;2.25;;
74100;SDS011;62462;52.530;21.682;2023-07-20T11:16:37;3.30;;;1.77;;
74100;SDS011;62462;52.530;21.682;2023-07-20T11:19:05;3.03;;;2.05;;
74100;SDS011;62462;52.530;21.682;2023-07-20T11:21:40;5.00;;;2.08;;
74100;SDS011;62462;52.530;21.682;2023-07-20T11:24:06;2.70;;;1.92;;
74100;SDS011;62462;52.530;21.682;2023-07-20T11:26:43;3.58;;;1.80;;
74100;SDS011;62462;52.530;21.682;2023-07-20T11:29:09;2.47;;;1.92;;
74100;SDS011;62462;52.530;21.682;2023-07-20T11:31:37;2.22;;;1.30;;
74100;SDS011;62462;52.530;21.682;2023-07-20T11:34:04;2.17;;;1.58;;
74100;SDS011;62462;52.530;21.682;2023-07-20T11:36:30;2.53;;;1.30;;
74100;SDS011;62462;52.530;21.682;2023-07-20T11:38:56;2.35;;;1.50;;
74100;SDS011;62462;52.530;21.682;2023-07-20T11:41:24;1.30;;;1.20;;
74100;SDS011;62462;52.530;21.682;2023-07-20T11:43:51;2.20;;;1.60;;
74100;SDS011;62462;52.530;21.682;2023-07-20T11:46:16;2.05;;;1.60;;
74100;SDS011;62462;52.530;21.682;2023-07-20T11:48:42;3.70;;;1.45;;
74100;SDS011;62462;52.530;21.682;2023-07-20T11:51:15;2.28;;;1.38;;
74100;SDS011;62462;52.530;21.682;2023-07-20T11:53:41;2.47;;;1.30;;
74100;SDS011;62462;52.530;21.682;2023-07-20T11:56:09;1.58;;;1.20;;
74100;SDS011;62462;52.530;21.682;2023-07-20T11:58:35;1.98;;;1.40;;
74100;SDS011;62462;52.530;21.682;2023-07-20T12:01:06;2.42;;;1.52;;
74100;SDS011;62462;52.530;21.682;2023-07-20T12:03:32;3.05;;;1.50;;
74100;SDS011;62462;52.530;21.682;2023-07-20T12:06:05;1.55;;;1.25;;
74100;SDS011;62462;52.530;21.682;2023-07-20T12:08:32;2.28;;;1.38;;
74100;SDS011;62462;52.530;21.682;2023-07-20T12:10:58;2.20;;;1.73;;
74100;SDS011;62462;52.530;21.682;2023-07-20T12:13:35;2.35;;;1.70;;
74100;SDS011;62462;52.530;21.682;2023-07-20T12:16:14;3.38;;;1.65;;
74100;SDS011;62462;52.530;21.682;2023-07-20T12:18:42;3.72;;;1.60;;
74100;SDS011;62462;52.530;21.682;2023-07-20T12:21:08;3.50;;;1.75;;
74100;SDS011;62462;52.530;21.682;2023-07-20T12:23:36;8.05;;;1.98;;
74100;SDS011;62462;52.530;21.682;2023-07-20T12:26:06;3.03;;;1.60;;
74100;SDS011;62462;52.530;21.682;2023-07-20T12:28:36;2.30;;;1.58;;
74100;SDS011;62462;52.530;21.682;2023-07-20T12:31:07;1.90;;;1.40;;
74100;SDS011;62462;52.530;21.682;2023-07-20T12:33:34;2.13;;;1.55;;
74100;SDS011;62462;52.530;21.682;2023-07-20T12:36:00;1.83;;;1.40;;
74100;SDS011;62462;52.530;21.682;2023-07-20T12:38:26;1.75;;;1.55;;
74100;SDS011;62462;52.530;21.682;2023-07-20T12:40:56;3.50;;;1.42;;
74100;SDS011;62462;52.530;21.682;2023-07-20T12:43:23;1.90;;;1.42;;
74100;SDS011;62462;52.530;21.682;2023-07-20T12:45:49;2.58;;;1.45;;
74100;SDS011;62462;52.530;21.682;2023-07-20T12:48:15;1.85;;;1.20;;
74100;SDS011;62462;52.530;21.682;2023-07-20T12:50:40;2.17;;;1.20;;
74100;SDS011;62462;52.530;21.682;2023-07-20T12:53:07;1.60;;;1.38;;
74100;SDS011;62462;52.530;21.682;2023-07-20T12:55:33;2.47;;;1.55;;
74100;SDS011;62462;52.530;21.682;2023-07-20T12:57:58;2.55;;;1.40;;
74100;SDS011;62462;52.530;21.682;2023-07-20T13:00:24;2.95;;;1.33;;
74100;SDS011;62462;52.530;21.682;2023-07-20T13:02:50;3.67;;;1.30;;
74100;SDS011;62462;52.530;21.682;2023-07-20T13:05:17;2.33;;;1.40;;
74100;SDS011;62462;52.530;21.682;2023-07-20T13:07:42;1.83;;;1.20;;
74100;SDS011;62462;52.530;21.682;2023-07-20T13:10:09;1.70;;;1.27;;
74100;SDS011;62462;52.530;21.682;2023-07-20T13:12:36;1.40;;;1.27;;
74100;SDS011;62462;52.530;21.682;2023-07-20T13:15:02;2.03;;;1.20;;
74100;SDS011;62462;52.530;21.682;2023-07-20T13:17:36;2.00;;;0.95;;
74100;SDS011;62462;52.530;21.682;2023-07-20T13:20:05;2.50;;;1.38;;
74100;SDS011;62462;52.530;21.682;2023-07-20T13:22:33;1.92;;;1.10;;
74100;SDS011;62462;52.530;21.682;2023-07-20T13:24:59;2.65;;;1.15;;
74100;SDS011;62462;52.530;21.682;2023-07-20T13:27:25;2.50;;;1.10;;
74100;SDS011;62462;52.530;21.682;2023-07-20T13:29:51;1.17;;;0.90;;
74100;SDS011;62462;52.530;21.682;2023-07-20T13:32:17;1.33;;;1.23;;
74100;SDS011;62462;52.530;21.682;2023-07-20T13:34:43;1.02;;;0.82;;
74100;SDS011;62462;52.530;21.682;2023-07-20T13:37:09;1.20;;;1.00;;
74100;SDS011;62462;52.530;21.682;2023-07-20T13:39:36;2.17;;;1.15;;
74100;SDS011;62462;52.530;21.682;2023-07-20T13:42:02;1.88;;;1.20;;
74100;SDS011;62462;52.530;21.682;2023-07-20T13:44:30;1.33;;;1.20;;
74100;SDS011;62462;52.530;21.682;2023-07-20T13:46:56;1.95;;;0.95;;
74100;SDS011;62462;52.530;21.682;2023-07-20T13:49:22;2.80;;;0.90;;
74100;SDS011;62462;52.530;21.682;2023-07-20T13:51:48;2.55;;;1.08;;
74100;SDS011;62462;52.530;21.682;2023-07-20T13:54:13;1.55;;;1.10;;
74100;SDS011;62462;52.530;21.682;2023-07-20T13:56:39;2.20;;;1.20;;
74100;SDS011;62462;52.530;21.682;2023-07-20T13:59:05;1.73;;;0.90;;
74100;SDS011;62462;52.530;21.682;2023-07-20T14:01:31;1.10;;;1.00;;
74100;SDS011;62462;52.530;21.682;2023-07-20T14:03:59;2.08;;;1.05;;
74100;SDS011;62462;52.530;21.682;2023-07-20T14:06:25;1.38;;;1.00;;
74100;SDS011;62462;52.530;21.682;2023-07-20T14:08:51;1.58;;;0.90;;
74100;SDS011;62462;52.530;21.682;2023-07-20T14:11:18;2.15;;;1.10;;
74100;SDS011;62462;52.530;21.682;2023-07-20T14:13:44;1.70;;;1.20;;
74100;SDS011;62462;52.530;21.682;2023-07-20T14:16:09;1.60;;;0.90;;
74100;SDS011;62462;52.530;21.682;2023-07-20T14:18:35;1.38;;;1.05;;
74100;SDS011;62462;52.530;21.682;2023-07-20T14:21:01;0.98;;;0.85;;
74100;SDS011;62462;52.530;21.682;2023-07-20T14:23:28;3.05;;;0.95;;
74100;SDS011;62462;52.530;21.682;2023-07-20T14:25:54;1.90;;;1.10;;
74100;SDS011;62462;52.530;21.682;2023-07-20T14:28:20;1.40;;;1.00;;
74100;SDS011;62462;52.530;21.682;2023-07-20T14:30:46;1.88;;;0.80;;
74100;SDS011;62462;52.530;21.682;2023-07-20T14:33:12;2.05;;;1.02;;
74100;SDS011;62462;52.530;21.682;2023-07-20T14:35:37;1.13;;;0.80;;
74100;SDS011;62462;52.530;21.682;2023-07-20T14:38:03;2.35;;;1.55;;
74100;SDS011;62462;52.530;21.682;2023-07-20T14:40:29;1.67;;;1.10;;
74100;SDS011;62462;52.530;21.682;2023-07-20T14:42:58;1.30;;;0.88;;
74100;SDS011;62462;52.530;21.682;2023-07-20T14:45:26;3.08;;;1.15;;
74100;SDS011;62462;52.530;21.682;2023-07-20T14:47:52;2.47;;;1.02;;
74100;SDS011;62462;52.530;21.682;2023-07-20T14:50:22;2.00;;;1.10;;
74100;SDS011;62462;52.530;21.682;2023-07-20T14:52:48;1.23;;;1.13;;